Terminal Aerodrome Forecast
Issued by NWS

Home | Current Version | Previous Version | Text Only | Print | Product List | Glossary On
Versions: 1 2 3 4 5 6 7 8 9 10 11 12
021
FTUS45 KABQ 171139
TAFGUP
TAF
KGUP 171139Z 1712/1812 06006KT P6SM SCT120
     FM171800 34007KT P6SM SCT120
     FM180200 05004KT P6SM SKC=

USA.gov is the U.S. government's official web portal to all federal, state and local government web resources and services.